ACA7057 KPHX-KLGB
Flight info
| Callsign | ACA7057 |
|---|---|
| Flight time | 1h 4m |
| Altitude | 32000 |
| Route | KEENS3 HRRBR EMLLD ROOBY3 |
| Aircraft | A320/M-SDE3FGHIRWY/LB1 |
Departure
| Time | 2026-04-25 03:04 |
|---|---|
| Airport | Phoenix Sky Harbor International Airport (KPHX) |
Arrival
| Time | 2026-04-25 04:08 |
|---|---|
| Airport | Long Beach International Airport (KLGB) |
| Time | Latitude | Longitude | Altitude | Speed | Heading |
|---|---|---|---|---|---|
| 2026-04-25 02:42 | 33.42711 | -112.02495 | 1122 ft | 0 kts | 90° |
| 2026-04-25 02:55 | 33.42711 | -112.02493 | 1124 ft | 1 kts | 90° |
| 2026-04-25 02:55 | 33.42711 | -112.02465 | 1113 ft | 5 kts | 88° |
| 2026-04-25 02:55 | 33.42724 | -112.02432 | 1123 ft | 4 kts | 44° |
| 2026-04-25 02:55 | 33.42753 | -112.02423 | 1120 ft | 5 kts | 13° |
| 2026-04-25 02:56 | 33.42773 | -112.02396 | 1115 ft | 6 kts | 74° |
| 2026-04-25 02:56 | 33.42775 | -112.02309 | 1124 ft | 14 kts | 88° |
| 2026-04-25 02:56 | 33.42776 | -112.02196 | 1124 ft | 13 kts | 90° |
| 2026-04-25 02:56 | 33.42774 | -112.02086 | 1125 ft | 13 kts | 91° |
| 2026-04-25 02:57 | 33.42774 | -112.01975 | 1124 ft | 13 kts | 89° |
| 2026-04-25 02:57 | 33.42775 | -112.01865 | 1125 ft | 13 kts | 90° |
| 2026-04-25 02:57 | 33.42774 | -112.01759 | 1125 ft | 13 kts | 90° |
| 2026-04-25 02:57 | 33.42794 | -112.01666 | 1121 ft | 11 kts | 38° |
| 2026-04-25 02:58 | 33.42860 | -112.01658 | 1123 ft | 9 kts | 360° |
| 2026-04-25 02:58 | 33.42947 | -112.01657 | 1123 ft | 13 kts | 1° |
| 2026-04-25 02:58 | 33.42995 | -112.01593 | 1121 ft | 11 kts | 84° |
| 2026-04-25 02:58 | 33.42994 | -112.01503 | 1121 ft | 11 kts | 90° |
| 2026-04-25 02:59 | 33.42994 | -112.01361 | 1127 ft | 21 kts | 88° |
| 2026-04-25 02:59 | 33.42995 | -112.01185 | 1126 ft | 21 kts | 91° |
| 2026-04-25 02:59 | 33.42999 | -112.01024 | 1125 ft | 18 kts | 88° |
| 2026-04-25 02:59 | 33.42994 | -112.00888 | 1124 ft | 15 kts | 90° |
| 2026-04-25 03:00 | 33.42994 | -112.00765 | 1127 ft | 15 kts | 90° |
| 2026-04-25 03:00 | 33.42994 | -112.00639 | 1127 ft | 15 kts | 90° |
| 2026-04-25 03:00 | 33.42994 | -112.00513 | 1127 ft | 15 kts | 90° |
| 2026-04-25 03:00 | 33.42994 | -112.00392 | 1128 ft | 14 kts | 89° |
| 2026-04-25 03:01 | 33.42994 | -112.00273 | 1124 ft | 15 kts | 90° |
| 2026-04-25 03:01 | 33.42994 | -112.00151 | 1127 ft | 15 kts | 90° |
| 2026-04-25 03:01 | 33.42994 | -112.00017 | 1128 ft | 18 kts | 90° |
| 2026-04-25 03:01 | 33.42993 | -111.99872 | 1128 ft | 17 kts | 90° |
| 2026-04-25 03:02 | 33.42994 | -111.99729 | 1127 ft | 17 kts | 90° |
| 2026-04-25 03:02 | 33.42994 | -111.99588 | 1124 ft | 17 kts | 90° |
| 2026-04-25 03:02 | 33.42993 | -111.99452 | 1128 ft | 16 kts | 90° |
| 2026-04-25 03:02 | 33.43018 | -111.99348 | 1131 ft | 11 kts | 32° |
| 2026-04-25 03:03 | 33.43076 | -111.99344 | 1133 ft | 6 kts | 359° |
| 2026-04-25 03:03 | 33.43104 | -111.99370 | 1134 ft | 4 kts | 274° |
| 2026-04-25 03:03 | 33.43104 | -111.99410 | 1133 ft | 11 kts | 270° |
| 2026-04-25 03:03 | 33.43105 | -111.99775 | 1132 ft | 88 kts | 270° |
| 2026-04-25 03:04 | 33.43104 | -112.00818 | 1207 ft | 153 kts | 270° |
| 2026-04-25 03:04 | 33.43083 | -112.02074 | 2057 ft | 154 kts | 267° |
| 2026-04-25 03:04 | 33.43022 | -112.03414 | 2738 ft | 170 kts | 265° |
| 2026-04-25 03:05 | 33.42871 | -112.06536 | 3929 ft | 210 kts | 266° |
| 2026-04-25 03:05 | 33.42622 | -112.08348 | 4525 ft | 235 kts | 250° |
| 2026-04-25 03:05 | 33.42012 | -112.10272 | 5346 ft | 256 kts | 249° |
| 2026-04-25 03:05 | 33.41371 | -112.12295 | 6487 ft | 263 kts | 249° |
| 2026-04-25 03:06 | 33.40718 | -112.14367 | 7639 ft | 268 kts | 249° |
| 2026-04-25 03:06 | 33.40055 | -112.16472 | 8813 ft | 273 kts | 249° |
| 2026-04-25 03:06 | 33.39448 | -112.18649 | 9947 ft | 279 kts | 257° |
| 2026-04-25 03:06 | 33.39269 | -112.20994 | 10894 ft | 292 kts | 270° |
| 2026-04-25 03:07 | 33.39564 | -112.23506 | 11460 ft | 316 kts | 278° |
| 2026-04-25 03:07 | 33.39962 | -112.26130 | 12376 ft | 324 kts | 278° |
| 2026-04-25 03:07 | 33.40375 | -112.28791 | 13443 ft | 327 kts | 278° |
| 2026-04-25 03:07 | 33.40790 | -112.31472 | 14428 ft | 329 kts | 278° |
| 2026-04-25 03:08 | 33.41200 | -112.34172 | 15369 ft | 331 kts | 277° |
| 2026-04-25 03:08 | 33.41605 | -112.36863 | 16318 ft | 334 kts | 277° |
| 2026-04-25 03:08 | 33.42017 | -112.39644 | 17268 ft | 336 kts | 277° |
| 2026-04-25 03:08 | 33.42418 | -112.42371 | 18165 ft | 339 kts | 277° |
| 2026-04-25 03:09 | 33.42827 | -112.45161 | 18953 ft | 342 kts | 277° |
| 2026-04-25 03:09 | 33.43237 | -112.47970 | 19794 ft | 343 kts | 277° |
| 2026-04-25 03:09 | 33.43650 | -112.50791 | 20642 ft | 345 kts | 277° |
| 2026-04-25 03:09 | 33.44064 | -112.53624 | 21474 ft | 346 kts | 277° |
| 2026-04-25 03:10 | 33.44479 | -112.56473 | 22307 ft | 349 kts | 277° |
| 2026-04-25 03:10 | 33.44891 | -112.59344 | 23122 ft | 351 kts | 276° |
| 2026-04-25 03:10 | 33.45041 | -112.62257 | 23811 ft | 352 kts | 269° |
| 2026-04-25 03:10 | 33.45077 | -112.65194 | 24457 ft | 354 kts | 269° |
| 2026-04-25 03:11 | 33.45116 | -112.68146 | 25087 ft | 356 kts | 270° |
| 2026-04-25 03:11 | 33.45155 | -112.71122 | 25698 ft | 358 kts | 270° |
| 2026-04-25 03:11 | 33.45197 | -112.74105 | 26289 ft | 360 kts | 270° |
| 2026-04-25 03:11 | 33.45238 | -112.77112 | 26873 ft | 362 kts | 270° |
| 2026-04-25 03:12 | 33.45359 | -112.80138 | 27426 ft | 365 kts | 275° |
| 2026-04-25 03:12 | 33.45859 | -112.83135 | 27970 ft | 369 kts | 280° |
| 2026-04-25 03:12 | 33.46433 | -112.86147 | 28527 ft | 371 kts | 280° |
| 2026-04-25 03:12 | 33.47002 | -112.89166 | 29059 ft | 373 kts | 280° |
| 2026-04-25 03:13 | 33.47573 | -112.92215 | 29581 ft | 376 kts | 280° |
| 2026-04-25 03:13 | 33.48145 | -112.95277 | 30043 ft | 378 kts | 280° |
| 2026-04-25 03:13 | 33.48717 | -112.98355 | 30468 ft | 379 kts | 279° |
| 2026-04-25 03:13 | 33.49292 | -113.01446 | 30897 ft | 380 kts | 279° |
| 2026-04-25 03:14 | 33.49866 | -113.04536 | 31313 ft | 380 kts | 279° |
| 2026-04-25 03:14 | 33.50440 | -113.07630 | 31670 ft | 380 kts | 279° |
| 2026-04-25 03:14 | 33.51556 | -113.13636 | 31776 ft | 357 kts | 279° |
| 2026-04-25 03:15 | 33.52614 | -113.19358 | 31763 ft | 349 kts | 279° |
| 2026-04-25 03:15 | 33.53659 | -113.25033 | 31767 ft | 348 kts | 279° |
| 2026-04-25 03:16 | 33.54698 | -113.30702 | 31768 ft | 348 kts | 279° |
| 2026-04-25 03:16 | 33.55735 | -113.36366 | 31766 ft | 348 kts | 279° |
| 2026-04-25 03:17 | 33.56765 | -113.42031 | 31768 ft | 348 kts | 279° |
| 2026-04-25 03:17 | 33.57283 | -113.44864 | 31890 ft | 348 kts | 279° |
| 2026-04-25 03:17 | 33.57801 | -113.47699 | 31908 ft | 347 kts | 279° |
| 2026-04-25 03:18 | 33.58834 | -113.53355 | 31912 ft | 347 kts | 279° |
| 2026-04-25 03:18 | 33.59887 | -113.59001 | 31906 ft | 347 kts | 279° |
| 2026-04-25 03:19 | 33.60935 | -113.64605 | 31906 ft | 347 kts | 279° |
| 2026-04-25 03:19 | 33.61987 | -113.70253 | 31896 ft | 347 kts | 279° |
| 2026-04-25 03:20 | 33.63037 | -113.75904 | 31859 ft | 347 kts | 279° |
| 2026-04-25 03:20 | 33.64083 | -113.81557 | 31838 ft | 347 kts | 279° |
| 2026-04-25 03:21 | 33.65265 | -113.87164 | 31806 ft | 350 kts | 287° |
| 2026-04-25 03:21 | 33.67309 | -113.92500 | 31784 ft | 351 kts | 289° |
| 2026-04-25 03:22 | 33.69367 | -113.97829 | 31760 ft | 352 kts | 289° |
| 2026-04-25 03:22 | 33.71069 | -114.02263 | 31745 ft | 352 kts | 289° |
| 2026-04-25 03:23 | 33.73117 | -114.07608 | 31733 ft | 352 kts | 289° |
| 2026-04-25 03:23 | 33.75159 | -114.12945 | 31734 ft | 351 kts | 287° |
| 2026-04-25 03:24 | 33.76269 | -114.18559 | 31733 ft | 344 kts | 275° |
| 2026-04-25 03:24 | 33.76927 | -114.24256 | 31760 ft | 344 kts | 275° |
| 2026-04-25 03:25 | 33.77596 | -114.29956 | 31743 ft | 345 kts | 275° |
| 2026-04-25 03:25 | 33.78267 | -114.35660 | 31735 ft | 345 kts | 275° |
| 2026-04-25 03:26 | 33.78930 | -114.41361 | 31729 ft | 344 kts | 275° |
| 2026-04-25 03:26 | 33.79590 | -114.47062 | 31728 ft | 344 kts | 275° |
| 2026-04-25 03:27 | 33.80242 | -114.52721 | 31729 ft | 344 kts | 275° |
| 2026-04-25 03:27 | 33.80896 | -114.58418 | 31720 ft | 344 kts | 275° |
| 2026-04-25 03:28 | 33.81547 | -114.64115 | 31724 ft | 345 kts | 275° |
| 2026-04-25 03:28 | 33.82191 | -114.69823 | 31723 ft | 344 kts | 275° |
| 2026-04-25 03:29 | 33.82831 | -114.75517 | 31724 ft | 343 kts | 275° |
| 2026-04-25 03:29 | 33.83468 | -114.81204 | 31726 ft | 343 kts | 275° |
| 2026-04-25 03:30 | 33.84108 | -114.86889 | 31717 ft | 343 kts | 275° |
| 2026-04-25 03:30 | 33.84747 | -114.92586 | 31725 ft | 343 kts | 275° |
| 2026-04-25 03:31 | 33.85383 | -114.98279 | 31758 ft | 343 kts | 275° |
| 2026-04-25 03:31 | 33.86022 | -115.03981 | 31747 ft | 344 kts | 275° |
| 2026-04-25 03:32 | 33.86654 | -115.09691 | 31741 ft | 344 kts | 275° |
| 2026-04-25 03:32 | 33.87277 | -115.15359 | 31744 ft | 344 kts | 275° |
| 2026-04-25 03:33 | 33.87904 | -115.21062 | 31741 ft | 344 kts | 275° |
| 2026-04-25 03:33 | 33.88523 | -115.26765 | 31742 ft | 344 kts | 275° |
| 2026-04-25 03:34 | 33.89145 | -115.32470 | 31745 ft | 343 kts | 275° |
| 2026-04-25 03:34 | 33.89767 | -115.38173 | 31743 ft | 343 kts | 275° |
| 2026-04-25 03:35 | 33.90379 | -115.43877 | 31746 ft | 343 kts | 274° |
| 2026-04-25 03:35 | 33.90984 | -115.49573 | 31744 ft | 343 kts | 274° |
| 2026-04-25 03:36 | 33.91594 | -115.55272 | 31752 ft | 343 kts | 274° |
| 2026-04-25 03:36 | 33.92201 | -115.60976 | 31753 ft | 344 kts | 274° |
| 2026-04-25 03:37 | 33.92782 | -115.66683 | 31757 ft | 343 kts | 273° |
| 2026-04-25 03:37 | 33.93200 | -115.72395 | 31792 ft | 343 kts | 272° |
| 2026-04-25 03:38 | 33.93572 | -115.78088 | 31794 ft | 344 kts | 272° |
| 2026-04-25 03:38 | 33.93961 | -115.83837 | 31786 ft | 344 kts | 272° |
| 2026-04-25 03:39 | 33.94364 | -115.89575 | 31796 ft | 344 kts | 272° |
| 2026-04-25 03:39 | 33.94766 | -115.95310 | 31780 ft | 344 kts | 272° |
| 2026-04-25 03:40 | 33.95165 | -116.01045 | 31783 ft | 343 kts | 272° |
| 2026-04-25 03:40 | 33.95566 | -116.06773 | 31788 ft | 345 kts | 272° |
| 2026-04-25 03:41 | 33.95771 | -116.09711 | 31542 ft | 357 kts | 272° |
| 2026-04-25 03:41 | 33.95975 | -116.12706 | 31295 ft | 361 kts | 272° |
| 2026-04-25 03:41 | 33.96176 | -116.15728 | 31047 ft | 363 kts | 272° |
| 2026-04-25 03:41 | 33.96374 | -116.18753 | 30779 ft | 361 kts | 271° |
| 2026-04-25 03:42 | 33.96313 | -116.21741 | 30156 ft | 355 kts | 263° |
| 2026-04-25 03:42 | 33.95949 | -116.24681 | 29410 ft | 354 kts | 261° |
| 2026-04-25 03:42 | 33.95582 | -116.27595 | 28721 ft | 349 kts | 261° |
| 2026-04-25 03:42 | 33.95221 | -116.30474 | 28079 ft | 346 kts | 261° |
| 2026-04-25 03:43 | 33.94870 | -116.33288 | 27446 ft | 343 kts | 262° |
| 2026-04-25 03:43 | 33.94519 | -116.36121 | 26816 ft | 341 kts | 262° |
| 2026-04-25 03:43 | 33.94172 | -116.38945 | 26198 ft | 339 kts | 262° |
| 2026-04-25 03:43 | 33.93827 | -116.41746 | 25594 ft | 337 kts | 262° |
| 2026-04-25 03:44 | 33.93483 | -116.44530 | 25023 ft | 335 kts | 262° |
| 2026-04-25 03:44 | 33.93138 | -116.47296 | 24455 ft | 333 kts | 262° |
| 2026-04-25 03:44 | 33.92794 | -116.50041 | 23896 ft | 331 kts | 262° |
| 2026-04-25 03:44 | 33.92454 | -116.52768 | 23342 ft | 328 kts | 262° |
| 2026-04-25 03:45 | 33.92117 | -116.55479 | 22738 ft | 325 kts | 262° |
| 2026-04-25 03:45 | 33.91779 | -116.58157 | 22185 ft | 321 kts | 262° |
| 2026-04-25 03:45 | 33.91440 | -116.60803 | 21665 ft | 318 kts | 262° |
| 2026-04-25 03:45 | 33.91103 | -116.63423 | 21131 ft | 316 kts | 262° |
| 2026-04-25 03:46 | 33.90765 | -116.66029 | 20588 ft | 314 kts | 262° |
| 2026-04-25 03:46 | 33.90428 | -116.68611 | 20037 ft | 312 kts | 262° |
| 2026-04-25 03:46 | 33.90092 | -116.71183 | 19493 ft | 310 kts | 261° |
| 2026-04-25 03:46 | 33.89759 | -116.73744 | 18945 ft | 309 kts | 261° |
| 2026-04-25 03:47 | 33.89432 | -116.76269 | 18418 ft | 309 kts | 262° |
| 2026-04-25 03:47 | 33.89131 | -116.78824 | 17849 ft | 309 kts | 263° |
| 2026-04-25 03:47 | 33.88853 | -116.81395 | 17284 ft | 308 kts | 263° |
| 2026-04-25 03:47 | 33.88583 | -116.83941 | 16756 ft | 306 kts | 263° |
| 2026-04-25 03:48 | 33.88314 | -116.86469 | 16241 ft | 304 kts | 263° |
| 2026-04-25 03:48 | 33.88043 | -116.88989 | 15752 ft | 303 kts | 263° |
| 2026-04-25 03:48 | 33.87769 | -116.91499 | 15250 ft | 302 kts | 262° |
| 2026-04-25 03:48 | 33.87495 | -116.94003 | 14748 ft | 301 kts | 262° |
| 2026-04-25 03:49 | 33.87221 | -116.96505 | 14241 ft | 301 kts | 262° |
| 2026-04-25 03:49 | 33.86949 | -116.98994 | 13748 ft | 300 kts | 263° |
| 2026-04-25 03:49 | 33.86684 | -117.01485 | 13358 ft | 300 kts | 263° |
| 2026-04-25 03:49 | 33.86427 | -117.03935 | 13018 ft | 300 kts | 263° |
| 2026-04-25 03:50 | 33.86165 | -117.06425 | 12634 ft | 299 kts | 263° |
| 2026-04-25 03:50 | 33.85902 | -117.08911 | 12257 ft | 299 kts | 263° |
| 2026-04-25 03:50 | 33.85639 | -117.11382 | 11888 ft | 298 kts | 263° |
| 2026-04-25 03:50 | 33.85376 | -117.13849 | 11508 ft | 297 kts | 263° |
| 2026-04-25 03:51 | 33.85112 | -117.16313 | 11135 ft | 297 kts | 263° |
| 2026-04-25 03:51 | 33.84848 | -117.18772 | 10765 ft | 296 kts | 262° |
| 2026-04-25 03:51 | 33.84584 | -117.21234 | 10392 ft | 297 kts | 262° |
| 2026-04-25 03:51 | 33.84321 | -117.23660 | 10161 ft | 285 kts | 262° |
| 2026-04-25 03:52 | 33.84013 | -117.25956 | 9945 ft | 274 kts | 255° |
| 2026-04-25 03:52 | 33.83273 | -117.28032 | 10001 ft | 270 kts | 240° |
| 2026-04-25 03:52 | 33.82114 | -117.29834 | 9910 ft | 274 kts | 226° |
| 2026-04-25 03:52 | 33.80573 | -117.31192 | 9759 ft | 277 kts | 211° |
| 2026-04-25 03:53 | 33.78841 | -117.32221 | 9607 ft | 278 kts | 210° |
| 2026-04-25 03:53 | 33.77134 | -117.33234 | 9481 ft | 277 kts | 210° |
| 2026-04-25 03:53 | 33.75410 | -117.34264 | 9351 ft | 277 kts | 210° |
| 2026-04-25 03:53 | 33.73684 | -117.35288 | 9221 ft | 277 kts | 210° |
| 2026-04-25 03:54 | 33.71960 | -117.36313 | 9107 ft | 276 kts | 210° |
| 2026-04-25 03:54 | 33.70235 | -117.37335 | 8975 ft | 276 kts | 209° |
| 2026-04-25 03:54 | 33.68509 | -117.38345 | 8843 ft | 276 kts | 209° |
| 2026-04-25 03:54 | 33.66786 | -117.39362 | 8722 ft | 276 kts | 209° |
| 2026-04-25 03:55 | 33.65068 | -117.40381 | 8591 ft | 276 kts | 209° |
| 2026-04-25 03:55 | 33.63350 | -117.41400 | 8466 ft | 275 kts | 209° |
| 2026-04-25 03:55 | 33.61634 | -117.42413 | 8356 ft | 275 kts | 209° |
| 2026-04-25 03:55 | 33.59945 | -117.43476 | 8231 ft | 273 kts | 217° |
| 2026-04-25 03:56 | 33.58586 | -117.45020 | 8046 ft | 269 kts | 235° |
| 2026-04-25 03:56 | 33.57736 | -117.46997 | 7471 ft | 269 kts | 253° |
| 2026-04-25 03:56 | 33.57504 | -117.49223 | 6989 ft | 269 kts | 269° |
| 2026-04-25 03:56 | 33.57480 | -117.51433 | 6753 ft | 258 kts | 268° |
| 2026-04-25 03:57 | 33.57443 | -117.53522 | 6633 ft | 244 kts | 268° |
| 2026-04-25 03:57 | 33.57399 | -117.55523 | 6371 ft | 237 kts | 268° |
| 2026-04-25 03:57 | 33.57356 | -117.57485 | 6037 ft | 233 kts | 268° |
| 2026-04-25 03:57 | 33.57318 | -117.59423 | 5716 ft | 231 kts | 268° |
| 2026-04-25 03:58 | 33.57281 | -117.61343 | 5416 ft | 230 kts | 268° |
| 2026-04-25 03:58 | 33.57246 | -117.63263 | 5116 ft | 230 kts | 268° |
| 2026-04-25 03:58 | 33.57212 | -117.65172 | 4822 ft | 229 kts | 268° |
| 2026-04-25 03:58 | 33.57177 | -117.67068 | 4512 ft | 225 kts | 268° |
| 2026-04-25 03:59 | 33.57143 | -117.68918 | 4221 ft | 220 kts | 268° |
| 2026-04-25 03:59 | 33.57154 | -117.70727 | 4033 ft | 212 kts | 278° |
| 2026-04-25 03:59 | 33.57501 | -117.72386 | 4022 ft | 199 kts | 281° |
| 2026-04-25 03:59 | 33.57783 | -117.73996 | 4032 ft | 205 kts | 280° |
| 2026-04-25 04:00 | 33.58053 | -117.75715 | 4027 ft | 217 kts | 279° |
| 2026-04-25 04:00 | 33.58331 | -117.77507 | 4027 ft | 219 kts | 279° |
| 2026-04-25 04:00 | 33.58614 | -117.79304 | 4026 ft | 219 kts | 279° |
| 2026-04-25 04:00 | 33.58902 | -117.81097 | 3975 ft | 218 kts | 279° |
| 2026-04-25 04:01 | 33.59189 | -117.82885 | 3639 ft | 218 kts | 279° |
| 2026-04-25 04:01 | 33.59474 | -117.84670 | 3294 ft | 218 kts | 279° |
| 2026-04-25 04:01 | 33.59760 | -117.86452 | 3053 ft | 216 kts | 279° |
| 2026-04-25 04:01 | 33.60046 | -117.88231 | 3026 ft | 218 kts | 279° |
| 2026-04-25 04:02 | 33.60334 | -117.90023 | 3027 ft | 219 kts | 279° |
| 2026-04-25 04:02 | 33.60622 | -117.91815 | 3027 ft | 219 kts | 280° |
| 2026-04-25 04:02 | 33.60934 | -117.93582 | 3026 ft | 219 kts | 281° |
| 2026-04-25 04:02 | 33.61273 | -117.95360 | 3024 ft | 219 kts | 286° |
| 2026-04-25 04:03 | 33.62103 | -117.96872 | 3024 ft | 221 kts | 321° |
| 2026-04-25 04:03 | 33.63472 | -117.97714 | 2963 ft | 221 kts | 339° |
| 2026-04-25 04:03 | 33.64931 | -117.98327 | 2601 ft | 223 kts | 341° |
| 2026-04-25 04:03 | 33.66407 | -117.98909 | 2254 ft | 224 kts | 341° |
| 2026-04-25 04:04 | 33.67881 | -117.99485 | 2056 ft | 222 kts | 341° |
| 2026-04-25 04:04 | 33.69309 | -118.00180 | 2021 ft | 221 kts | 324° |
| 2026-04-25 04:04 | 33.70444 | -118.01420 | 2020 ft | 221 kts | 313° |
| 2026-04-25 04:04 | 33.71516 | -118.02737 | 2020 ft | 220 kts | 313° |
| 2026-04-25 04:05 | 33.72590 | -118.04042 | 2019 ft | 216 kts | 313° |
| 2026-04-25 04:05 | 33.73607 | -118.05267 | 2001 ft | 197 kts | 313° |
| 2026-04-25 04:05 | 33.74541 | -118.06392 | 1876 ft | 185 kts | 313° |
| 2026-04-25 04:05 | 33.75393 | -118.07419 | 1607 ft | 159 kts | 313° |
| 2026-04-25 04:06 | 33.76125 | -118.08301 | 1398 ft | 140 kts | 313° |
| 2026-04-25 04:06 | 33.76773 | -118.09084 | 1219 ft | 128 kts | 313° |
| 2026-04-25 04:06 | 33.77387 | -118.09826 | 1051 ft | 122 kts | 312° |
| 2026-04-25 04:06 | 33.77985 | -118.10543 | 900 ft | 120 kts | 313° |
| 2026-04-25 04:07 | 33.78593 | -118.11262 | 725 ft | 121 kts | 313° |
| 2026-04-25 04:07 | 33.79191 | -118.11989 | 549 ft | 123 kts | 312° |
| 2026-04-25 04:07 | 33.79795 | -118.12721 | 460 ft | 124 kts | 313° |
| 2026-04-25 04:07 | 33.80375 | -118.13439 | 303 ft | 119 kts | 314° |
| 2026-04-25 04:08 | 33.80949 | -118.14132 | 110 ft | 115 kts | 314° |
| 2026-04-25 04:08 | 33.81478 | -118.14773 | 44 ft | 89 kts | 315° |
| 2026-04-25 04:08 | 33.81783 | -118.15141 | 44 ft | 35 kts | 313° |
| 2026-04-25 04:08 | 33.81857 | -118.15288 | 43 ft | 16 kts | 272° |
| 2026-04-25 04:09 | 33.81830 | -118.15373 | 44 ft | 7 kts | 185° |
| 2026-04-25 04:09 | 33.81794 | -118.15341 | 44 ft | 7 kts | 134° |
| 2026-04-25 04:09 | 33.81760 | -118.15300 | 44 ft | 7 kts | 135° |
| 2026-04-25 04:09 | 33.81722 | -118.15256 | 45 ft | 8 kts | 135° |
| 2026-04-25 04:10 | 33.81684 | -118.15209 | 45 ft | 12 kts | 135° |
| 2026-04-25 04:10 | 33.81611 | -118.15123 | 45 ft | 17 kts | 135° |
| 2026-04-25 04:10 | 33.81539 | -118.15034 | 45 ft | 4 kts | 139° |
| 2026-04-25 04:10 | 33.81522 | -118.15041 | 45 ft | 5 kts | 221° |
| 2026-04-25 04:11 | 33.81424 | -118.15099 | 44 ft | 10 kts | 180° |
| 2026-04-25 04:11 | 33.81362 | -118.15099 | 44 ft | 7 kts | 180° |
| 2026-04-25 04:11 | 33.81321 | -118.15104 | 45 ft | 5 kts | 203° |
| 2026-04-25 04:12 | 33.81309 | -118.15141 | 45 ft | 5 kts | 268° |
| 2026-04-25 04:12 | 33.81311 | -118.15182 | 45 ft | 5 kts | 272° |
| 2026-04-25 04:12 | 33.81310 | -118.15224 | 45 ft | 5 kts | 268° |
| 2026-04-25 04:12 | 33.81309 | -118.15267 | 45 ft | 5 kts | 268° |
| 2026-04-25 04:13 | 33.81295 | -118.15304 | 43 ft | 5 kts | 219° |
| 2026-04-25 04:13 | 33.81263 | -118.15322 | 45 ft | 5 kts | 204° |
| 2026-04-25 04:13 | 33.81244 | -118.15353 | 45 ft | 4 kts | 278° |
| 2026-04-25 04:13 | 33.81257 | -118.15372 | 43 ft | 0 kts | 313° |